Time;durP1;ratioP1;P1;durP2;ratioP2;P2;SDS_P1;SDS_P2;PMS_P1;PMS_P2;Temp;Humidity;BMP_temperature;BMP_pressure;BME280_temperature;BME280_humidity;BME280_pressure;Samples;Min_cycle;Max_cycle;Signal;HPM_P1;HPM_P2
2021/01/01 00:00:54;;;;;;;146.77;53.20;;;;;;;-0.17;100.00;98197.78;2033049;29;20738;-73
2021/01/01 00:01:55;;;;;;;132.13;52.30;;;;;;;-0.18;100.00;98196.19;2033746;29;20644;-72
2021/01/01 00:02:59;;;;;;;138.90;52.63;;;;;;;-0.24;100.00;98181.47;2032832;29;20235;-72
2021/01/01 00:04:01;;;;;;;138.82;50.72;;;;;;;-0.12;100.00;98187.34;2032943;29;20330;-73
2021/01/01 00:05:02;;;;;;;124.20;51.22;;;;;;;-0.08;100.00;98192.91;2025480;29;20235;-72
2021/01/01 00:06:04;;;;;;;128.32;50.65;;;;;;;-0.18;100.00;98190.94;2033011;29;20260;-73
2021/01/01 00:07:04;;;;;;;132.60;52.22;;;;;;;-0.16;100.00;98196.75;2033518;29;20271;-72
2021/01/01 00:08:06;;;;;;;116.37;51.40;;;;;;;-0.13;100.00;98196.25;2032939;29;20227;-72
2021/01/01 00:09:07;;;;;;;142.40;55.88;;;;;;;-0.22;100.00;98191.69;2032544;29;20718;-72
2021/01/01 00:10:10;;;;;;;142.57;54.67;;;;;;;-0.31;100.00;98186.09;2033661;29;20579;-73
2021/01/01 00:11:14;;;;;;;144.88;53.17;;;;;;;-0.21;100.00;98188.81;2033175;29;20235;-72
2021/01/01 00:12:15;;;;;;;141.20;54.60;;;;;;;-0.24;100.00;98193.78;2025610;29;20223;-72
2021/01/01 00:13:16;;;;;;;136.02;53.08;;;;;;;-0.25;100.00;98187.75;2025043;29;20239;-73
2021/01/01 00:14:17;;;;;;;141.33;57.23;;;;;;;-0.15;100.00;98197.53;2032960;29;20306;-73
2021/01/01 00:15:18;;;;;;;127.72;53.05;;;;;;;-0.25;100.00;98185.13;2033638;29;20254;-73
2021/01/01 00:16:19;;;;;;;122.67;52.77;;;;;;;-0.18;100.00;98196.19;2032930;29;20302;-74
2021/01/01 00:17:20;;;;;;;151.20;54.85;;;;;;;-0.37;100.00;98181.84;2024991;29;20220;-73
2021/01/01 00:18:21;;;;;;;146.40;55.73;;;;;;;-0.30;100.00;98198.16;2032824;29;20674;-73
2021/01/01 00:19:22;;;;;;;141.60;53.20;;;;;;;-0.34;100.00;98191.84;2033318;29;20294;-74
2021/01/01 00:20:23;;;;;;;134.07;55.83;;;;;;;-0.33;100.00;98193.44;2032777;29;20227;-74
2021/01/01 00:21:29;;;;;;;137.18;54.20;;;;;;;-0.44;100.00;98168.13;2032904;29;20231;-73
2021/01/01 00:22:30;;;;;;;134.68;55.72;;;;;;;-0.31;100.00;98191.34;2032839;29;20243;-72
2021/01/01 00:23:31;;;;;;;138.45;55.88;;;;;;;-0.27;100.00;98184.56;2032903;29;20678;-71
2021/01/01 00:24:32;;;;;;;141.50;52.50;;;;;;;-0.23;100.00;98196.16;2033523;29;20712;-71
2021/01/01 00:25:33;;;;;;;144.05;56.45;;;;;;;-0.29;100.00;98195.31;2032854;29;20275;-72
2021/01/01 00:26:35;;;;;;;154.53;58.87;;;;;;;-0.34;100.00;98189.22;2032758;29;20227;-71
2021/01/01 00:27:37;;;;;;;150.52;58.40;;;;;;;-0.42;100.00;98192.28;2032753;29;20227;-71
2021/01/01 00:28:42;;;;;;;148.20;56.35;;;;;;;-0.49;100.00;98186.44;2032483;29;20279;-72
2021/01/01 00:29:42;;;;;;;138.20;56.20;;;;;;;-0.55;100.00;98195.28;2032903;29;20227;-71
2021/01/01 00:30:44;;;;;;;146.53;55.37;;;;;;;-0.58;100.00;98186.88;2033590;29;20314;-71
2021/01/01 00:31:44;;;;;;;140.52;60.10;;;;;;;-0.57;100.00;98187.66;2033554;29;20725;-73
2021/01/01 00:32:46;;;;;;;157.70;60.27;;;;;;;-0.58;100.00;98194.75;2033454;29;20664;-71
2021/01/01 00:33:47;;;;;;;153.68;60.55;;;;;;;-0.54;100.00;98197.66;2033394;29;20257;-71
2021/01/01 00:34:49;;;;;;;155.73;58.63;;;;;;;-0.55;100.00;98198.69;2032705;29;20314;-71
2021/01/01 00:35:49;;;;;;;150.27;60.53;;;;;;;-0.55;100.00;98203.13;2032801;29;20223;-72
2021/01/01 00:36:50;;;;;;;153.87;60.63;;;;;;;-0.59;100.00;98198.41;2032856;29;20266;-71
2021/01/01 00:37:51;;;;;;;161.30;61.97;;;;;;;-0.61;100.00;98199.66;2032680;29;20227;-71
2021/01/01 00:38:53;;;;;;;154.93;58.90;;;;;;;-0.52;100.00;98197.41;2032385;29;20227;-72
2021/01/01 00:39:53;;;;;;;147.05;57.92;;;;;;;-0.51;100.00;98199.00;2032927;29;20231;-71
2021/01/01 00:40:55;;;;;;;140.33;57.70;;;;;;;-0.52;100.00;98202.63;2032700;29;20234;-71
2021/01/01 00:41:56;;;;;;;143.43;58.17;;;;;;;-0.53;100.00;98201.06;2032808;29;20615;-71
2021/01/01 00:42:57;;;;;;;149.73;58.17;;;;;;;-0.53;100.00;98201.06;2024927;29;20232;-72
2021/01/01 00:43:58;;;;;;;146.75;56.78;;;;;;;-0.54;100.00;98200.25;2025009;29;20228;-72
2021/01/01 00:45:00;;;;;;;148.18;59.30;;;;;;;-0.58;100.00;98199.19;2032720;29;20239;-72
2021/01/01 00:46:00;;;;;;;142.52;57.10;;;;;;;-0.61;100.00;98207.50;2032956;29;20707;-71
2021/01/01 00:47:02;;;;;;;141.30;57.60;;;;;;;-0.65;100.00;98204.59;2024778;29;20710;-71
2021/01/01 00:48:03;;;;;;;144.10;59.72;;;;;;;-0.65;100.00;98198.56;2024800;29;20318;-71
2021/01/01 00:49:04;;;;;;;156.15;59.15;;;;;;;-0.63;100.00;98213.00;2032422;29;20239;-71
2021/01/01 00:50:06;;;;;;;151.20;60.78;;;;;;;-0.64;100.00;98202.78;2033315;29;20565;-71
2021/01/01 00:51:07;;;;;;;153.52;61.70;;;;;;;-0.66;100.00;98207.47;2032229;29;20232;-73
2021/01/01 00:52:08;;;;;;;160.40;62.72;;;;;;;-0.62;100.00;98204.09;2032643;29;20231;-71
2021/01/01 00:53:09;;;;;;;165.53;63.40;;;;;;;-0.63;100.00;98197.28;2033065;29;20242;-71
2021/01/01 00:54:09;;;;;;;158.77;62.42;;;;;;;-0.60;100.00;98201.25;2033344;29;20235;-71
2021/01/01 00:55:11;;;;;;;155.50;59.73;;;;;;;-0.57;100.00;98212.03;2032449;29;20251;-71
2021/01/01 00:56:18;;;;;;;144.52;58.28;;;;;;;-0.58;100.00;98205.22;2024890;29;20232;-71
2021/01/01 00:57:20;;;;;;;144.00;57.05;;;;;;;-0.59;100.00;98208.09;2032544;29;20232;-71
2021/01/01 00:58:21;;;;;;;147.70;58.90;;;;;;;-0.64;100.00;98202.78;2032589;29;20602;-71
2021/01/01 00:59:22;;;;;;;138.40;57.93;;;;;;;-0.68;100.00;98194.63;2032986;29;20251;-74
2021/01/01 01:00:23;;;;;;;141.07;57.17;;;;;;;-0.65;100.00;98204.59;2033117;29;20278;-72
2021/01/01 01:01:25;;;;;;;146.07;58.13;;;;;;;-0.65;100.00;98203.81;2033021;29;20310;-72
2021/01/01 01:02:26;;;;;;;140.35;56.95;;;;;;;-0.57;100.00;98204.19;2033334;29;20231;-71
2021/01/01 01:03:27;;;;;;;138.10;56.87;;;;;;;-0.53;100.00;98198.44;2033286;29;20235;-71
2021/01/01 01:04:28;;;;;;;131.07;54.55;;;;;;;-0.44;100.00;98210.06;2033362;29;20231;-72
2021/01/01 01:05:29;;;;;;;136.07;54.20;;;;;;;-0.36;100.00;98197.31;2033301;29;20307;-71
2021/01/01 01:06:30;;;;;;;138.40;55.70;;;;;;;-0.31;100.00;98200.00;2033121;29;20231;-71
2021/01/01 01:07:31;;;;;;;124.90;54.80;;;;;;;-0.37;100.00;98202.81;2033235;29;20227;-72
2021/01/01 01:08:32;;;;;;;127.38;54.13;;;;;;;-0.45;100.00;98198.78;2033186;29;20227;-71
2021/01/01 01:09:33;;;;;;;130.43;54.07;;;;;;;-0.50;100.00;98209.22;2033127;29;20227;-71
2021/01/01 01:10:34;;;;;;;136.82;56.78;;;;;;;-0.57;100.00;98195.53;2033092;29;20722;-72
2021/01/01 01:11:35;;;;;;;131.97;55.27;;;;;;;-0.62;100.00;98195.47;2032532;29;20708;-71
2021/01/01 01:12:37;;;;;;;139.43;58.47;;;;;;;-0.63;100.00;98202.53;2032621;29;20216;-71
2021/01/01 01:13:38;;;;;;;126.30;53.53;;;;;;;-0.59;100.00;98203.63;2032928;29;20318;-71
2021/01/01 01:14:39;;;;;;;138.35;53.63;;;;;;;-0.57;100.00;98204.19;2032384;29;20706;-72
2021/01/01 01:15:40;;;;;;;132.83;55.00;;;;;;;-0.59;100.00;98201.00;2032369;29;20259;-71
2021/01/01 01:16:41;;;;;;;130.63;53.67;;;;;;;-0.54;100.00;98204.72;2032525;29;20609;-71
2021/01/01 01:17:42;;;;;;;129.27;53.35;;;;;;;-0.43;100.00;98206.44;2033151;29;20586;-71
2021/01/01 01:18:43;;;;;;;122.17;52.80;;;;;;;-0.48;100.00;98198.50;2033388;29;20227;-71
2021/01/01 01:19:44;;;;;;;140.13;53.08;;;;;;;-0.54;100.00;98204.72;2032369;29;20262;-71
2021/01/01 01:20:45;;;;;;;123.80;52.10;;;;;;;-0.56;100.00;98204.97;2024420;29;20231;-72
2021/01/01 01:21:46;;;;;;;138.00;53.97;;;;;;;-0.50;100.00;98201.38;2023426;29;20275;-71
2021/01/01 01:22:47;;;;;;;129.20;53.23;;;;;;;-0.53;100.00;98196.59;2032393;29;20275;-71
2021/01/01 01:23:48;;;;;;;156.40;63.28;;;;;;;-0.41;100.00;98207.75;2033142;29;20254;-71
2021/01/01 01:24:49;;;;;;;285.10;116.40;;;;;;;-0.33;100.00;98188.97;2033168;29;20228;-71
2021/01/01 01:25:50;;;;;;;137.70;56.75;;;;;;;-0.15;100.00;98200.94;2033109;29;20223;-71
2021/01/01 01:26:51;;;;;;;121.00;51.93;;;;;;;-0.16;100.00;98188.88;2033063;29;20230;-72
2021/01/01 01:27:52;;;;;;;120.43;50.05;;;;;;;-0.30;100.00;98166.72;2032701;29;20248;-74
2021/01/01 01:28:54;;;;;;;118.72;46.92;;;;;;;-0.13;100.00;98201.50;2032187;29;20219;-71
2021/01/01 01:29:54;;;;;;;106.93;46.47;;;;;;;-0.16;100.00;98198.59;2032328;29;20239;-71
2021/01/01 01:30:55;;;;;;;122.07;49.00;;;;;;;-0.27;100.00;98205.53;2032185;29;20267;-71
2021/01/01 01:31:56;;;;;;;109.75;47.97;;;;;;;-0.21;100.00;98206.38;2032315;29;20774;-71
2021/01/01 01:32:57;;;;;;;107.07;46.33;;;;;;;-0.26;100.00;98204.53;2033050;29;20704;-71
2021/01/01 01:33:58;;;;;;;111.07;46.33;;;;;;;-0.34;100.00;98208.38;2032313;29;20242;-71
2021/01/01 01:34:59;;;;;;;114.83;47.33;;;;;;;-0.45;100.00;98204.03;2032355;29;20255;-72
2021/01/01 01:36:00;;;;;;;116.15;49.05;;;;;;;-0.49;100.00;98210.03;2032991;29;20235;-71
2021/01/01 01:37:01;;;;;;;107.53;46.97;;;;;;;-0.55;100.00;98216.22;2032819;29;20235;-72
2021/01/01 01:38:03;;;;;;;108.53;45.05;;;;;;;-0.64;100.00;98202.78;2032183;29;20558;-72
2021/01/01 01:39:04;;;;;;;110.28;47.40;;;;;;;-0.65;100.00;98212.47;2024397;29;20231;-72
2021/01/01 01:40:06;;;;;;;104.55;45.05;;;;;;;-0.59;100.00;98213.31;2024316;29;20288;-71
2021/01/01 01:41:08;;;;;;;109.95;47.03;;;;;;;-0.59;100.00;98195.78;2024146;29;20263;-72
2021/01/01 01:42:08;;;;;;;111.97;45.05;;;;;;;-0.55;100.00;98214.41;2024394;29;20243;-72
2021/01/01 01:43:10;;;;;;;108.67;46.37;;;;;;;-0.63;100.00;98210.38;2032365;29;20238;-72
2021/01/01 01:44:11;;;;;;;108.25;46.72;;;;;;;-0.70;100.00;98207.16;2032820;29;20258;-71
2021/01/01 01:45:13;;;;;;;108.13;47.40;;;;;;;-0.68;100.00;98207.72;2032955;29;20322;-71
2021/01/01 01:46:14;;;;;;;116.65;48.08;;;;;;;-0.77;100.00;98206.56;2032998;29;20227;-72
2021/01/01 01:47:18;;;;;;;116.87;46.60;;;;;;;-0.87;100.00;98209.03;2031917;29;20267;-71
2021/01/01 01:48:25;;;;;;;119.00;47.95;;;;;;;-0.86;100.00;98221.13;2032236;29;20372;-71
2021/01/01 01:49:26;;;;;;;117.88;46.92;;;;;;;-0.88;100.00;98218.72;2032445;29;20231;-72
2021/01/01 01:50:27;;;;;;;113.15;46.75;;;;;;;-0.86;100.00;98221.13;2032135;29;20235;-71
2021/01/01 01:51:28;;;;;;;122.50;50.07;;;;;;;-0.87;100.00;98214.25;2032174;29;20227;-72
2021/01/01 01:52:29;;;;;;;126.50;48.72;;;;;;;-0.87;100.00;98217.72;2024177;29;20228;-73
2021/01/01 01:53:33;;;;;;;125.03;48.03;;;;;;;-0.97;100.00;98201.06;2024332;29;20307;-72
2021/01/01 01:54:34;;;;;;;121.63;48.25;;;;;;;-0.91;100.00;98218.41;2032275;29;20235;-72
2021/01/01 01:55:35;;;;;;;120.47;47.83;;;;;;;-0.90;100.00;98218.16;2032879;29;20254;-72
2021/01/01 01:56:36;;;;;;;124.25;48.60;;;;;;;-0.82;100.00;98224.81;2032116;29;20246;-71
2021/01/01 01:57:39;;;;;;;118.27;45.37;;;;;;;-0.74;100.00;98213.91;2024002;29;20259;-74
2021/01/01 01:58:40;;;;;;;112.05;45.70;;;;;;;-0.77;100.00;98224.09;2024531;29;20228;-71
2021/01/01 01:59:43;;;;;;;119.55;47.47;;;;;;;-0.81;100.00;98221.16;2024336;29;20236;-71
2021/01/01 02:00:57;;;;;;;120.00;47.35;;;;;;;-0.71;100.00;98230.97;2032172;29;20619;-71
2021/01/01 02:01:58;;;;;;;120.43;46.50;;;;;;;-0.80;100.00;98227.97;2032392;29;20239;-72
2021/01/01 02:02:59;;;;;;;124.20;47.38;;;;;;;-0.88;100.00;98215.31;2031965;29;20573;-72
2021/01/01 02:04:00;;;;;;;113.83;47.23;;;;;;;-0.83;100.00;98225.06;2032148;29;20590;-72
2021/01/01 02:05:01;;;;;;;112.25;46.17;;;;;;;-0.88;100.00;98220.53;2032708;29;20583;-71
2021/01/01 02:06:03;;;;;;;122.30;47.97;;;;;;;-0.80;100.00;98230.59;2032161;29;20233;-71
2021/01/01 02:07:04;;;;;;;108.32;45.85;;;;;;;-0.79;100.00;98228.78;2031961;29;20259;-72
2021/01/01 02:08:05;;;;;;;128.23;48.30;;;;;;;-0.94;100.00;98200.59;2032875;29;20279;-71
2021/01/01 02:09:06;;;;;;;117.10;47.03;;;;;;;-0.77;100.00;98224.91;2032025;29;20575;-71
2021/01/01 02:10:09;;;;;;;117.43;47.57;;;;;;;-0.86;100.00;98208.03;2031785;29;20891;-72
2021/01/01 02:11:09;;;;;;;114.97;47.05;;;;;;;-0.73;100.00;98222.56;2031988;29;20294;-72
2021/01/01 02:12:11;;;;;;;117.20;47.13;;;;;;;-0.74;100.00;98221.78;2031589;29;20280;-72
2021/01/01 02:13:12;;;;;;;116.70;47.08;;;;;;;-0.73;100.00;98222.56;2031560;29;20235;-72
2021/01/01 02:14:14;;;;;;;111.13;45.53;;;;;;;-0.78;100.00;98214.63;2024214;29;20710;-72
2021/01/01 02:15:15;;;;;;;117.75;47.75;;;;;;;-0.67;100.00;98226.84;2032107;29;20230;-72
2021/01/01 02:16:17;;;;;;;116.03;47.30;;;;;;;-0.71;100.00;98216.03;2032630;29;20682;-71
2021/01/01 02:17:18;;;;;;;109.47;44.85;;;;;;;-0.84;100.00;98200.72;2032778;29;20236;-71
2021/01/01 02:18:38;;;;;;;111.77;46.97;;;;;;;-0.80;100.00;98217.50;2032811;29;20310;-72
2021/01/01 02:19:39;;;;;;;108.53;46.80;;;;;;;-0.72;100.00;98213.69;2032097;29;20319;-74
2021/01/01 02:20:40;;;;;;;117.40;46.95;;;;;;;-0.70;100.00;98215.00;2032758;29;20255;-71
2021/01/01 02:21:43;;;;;;;109.90;45.20;;;;;;;-0.67;100.00;98213.75;2032770;29;20251;-74
2021/01/01 02:22:44;;;;;;;111.90;44.40;;;;;;;-0.63;100.00;98210.38;2032708;29;20671;-72
2021/01/01 02:23:46;;;;;;;115.43;46.13;;;;;;;-0.68;100.00;98210.34;2031796;29;20256;-71
2021/01/01 02:24:46;;;;;;;109.47;48.00;;;;;;;-0.78;100.00;98201.53;2032040;29;20234;-71
2021/01/01 02:25:48;;;;;;;112.27;47.73;;;;;;;-0.81;100.00;98202.81;2032715;29;20242;-72
2021/01/01 02:26:48;;;;;;;109.30;46.85;;;;;;;-0.82;100.00;98208.31;2031835;29;20226;-72
2021/01/01 02:27:50;;;;;;;109.70;45.27;;;;;;;-0.85;100.00;98199.13;2031899;29;20223;-73
2021/01/01 02:28:51;;;;;;;114.30;46.53;;;;;;;-0.82;100.00;98211.72;2031734;29;20223;-73
2021/01/01 02:29:52;;;;;;;113.37;46.40;;;;;;;-0.82;100.00;98203.88;2031811;29;20231;-73
2021/01/01 02:30:53;;;;;;;108.07;45.92;;;;;;;-0.79;100.00;98198.13;2031488;29;20231;-73
2021/01/01 02:31:54;;;;;;;112.10;43.90;;;;;;;-0.74;100.00;98190.34;2031652;29;20255;-73
2021/01/01 02:32:54;;;;;;;106.43;45.22;;;;;;;-0.72;100.00;98198.75;2031775;29;20231;-72
2021/01/01 02:33:56;;;;;;;116.97;46.87;;;;;;;-0.62;100.00;98203.31;2031946;29;20347;-73
2021/01/01 02:34:57;;;;;;;116.43;47.25;;;;;;;-0.62;100.00;98208.56;2031856;29;20715;-72
2021/01/01 02:35:58;;;;;;;117.07;45.33;;;;;;;-0.63;100.00;98204.34;2031744;29;20247;-71
2021/01/01 02:36:59;;;;;;;115.20;46.17;;;;;;;-0.58;100.00;98207.84;2031817;29;20238;-72
2021/01/01 02:38:01;;;;;;;112.30;45.70;;;;;;;-0.59;100.00;98208.88;2032067;29;20326;-71
2021/01/01 02:39:02;;;;;;;114.93;47.20;;;;;;;-0.83;100.00;98186.56;2031785;29;20235;-72
2021/01/01 02:40:05;;;;;;;101.82;43.55;;;;;;;-0.77;100.00;98200.53;2031902;29;20238;-72
2021/01/01 02:41:06;;;;;;;105.38;46.15;;;;;;;-0.71;100.00;98213.44;2032504;29;20282;-72
2021/01/01 02:42:07;;;;;;;110.88;45.05;;;;;;;-0.70;100.00;98209.78;2032175;29;20259;-71
2021/01/01 02:43:08;;;;;;;103.30;43.80;;;;;;;-0.73;100.00;98189.31;2031689;29;20245;-72
2021/01/01 02:44:09;;;;;;;107.88;44.30;;;;;;;-0.67;100.00;98204.06;2031847;29;20452;-71
2021/01/01 02:45:12;;;;;;;103.70;42.17;;;;;;;-0.58;100.00;98207.84;2032644;29;20227;-71
2021/01/01 02:46:12;;;;;;;110.47;46.63;;;;;;;-0.64;100.00;98213.25;2031895;29;20379;-72
2021/01/01 02:47:15;;;;;;;99.63;44.40;;;;;;;-0.71;100.00;98197.72;2031894;29;20297;-72
2021/01/01 02:48:17;;;;;;;101.13;42.50;;;;;;;-0.79;100.00;98187.66;2031751;29;20223;-71
2021/01/01 02:49:18;;;;;;;104.13;43.28;;;;;;;-0.72;100.00;98214.47;2031730;29;20236;-71
2021/01/01 02:50:19;;;;;;;106.28;44.05;;;;;;;-0.85;100.00;98199.13;2032532;29;20235;-72
2021/01/01 02:51:20;;;;;;;109.43;43.77;;;;;;;-0.84;100.00;98200.72;2031831;29;20255;-71
2021/01/01 02:52:21;;;;;;;112.90;44.95;;;;;;;-0.93;100.00;98207.41;2031778;29;20223;-71
2021/01/01 02:53:23;;;;;;;122.10;47.13;;;;;;;-0.91;100.00;98202.72;2031977;29;20235;-74
2021/01/01 02:54:25;;;;;;;109.88;45.83;;;;;;;-0.97;100.00;98206.28;2032439;29;20697;-72
2021/01/01 02:55:26;;;;;;;112.28;45.17;;;;;;;-1.04;100.00;98200.44;2031598;29;20227;-72
2021/01/01 02:56:26;;;;;;;119.10;44.30;;;;;;;-1.07;100.00;98206.16;2031845;29;20801;-71
2021/01/01 02:57:28;;;;;;;110.73;46.87;;;;;;;-1.06;100.00;98203.28;2031716;29;20664;-72
2021/01/01 02:58:28;;;;;;;115.03;47.63;;;;;;;-0.98;100.00;98207.31;2031693;29;20227;-71
2021/01/01 02:59:30;;;;;;;104.00;45.83;;;;;;;-1.00;100.00;98204.94;2031798;29;20227;-71
2021/01/01 03:00:31;;;;;;;124.38;47.30;;;;;;;-1.01;100.00;98199.97;2031524;29;20227;-72
2021/01/01 03:01:33;;;;;;;116.28;46.50;;;;;;;-0.92;100.00;98201.13;2023740;29;20584;-72
2021/01/01 03:02:33;;;;;;;123.88;47.20;;;;;;;-0.93;100.00;98192.47;2031639;29;20231;-71
2021/01/01 03:03:35;;;;;;;115.10;46.47;;;;;;;-0.86;100.00;98194.94;2031645;29;20312;-71
2021/01/01 03:04:35;;;;;;;123.50;48.25;;;;;;;-0.91;100.00;98197.47;2031712;29;20296;-72
2021/01/01 03:05:37;;;;;;;122.67;47.50;;;;;;;-0.93;100.00;98202.94;2032333;29;20235;-71
2021/01/01 03:06:37;;;;;;;110.47;47.92;;;;;;;-0.93;100.00;98202.16;2031174;29;20231;-73
2021/01/01 03:07:38;;;;;;;120.10;47.60;;;;;;;-0.92;100.00;98198.50;2031661;29;20236;-72
2021/01/01 03:08:40;;;;;;;112.55;46.53;;;;;;;-0.92;100.00;98201.91;2031929;29;20242;-72
2021/01/01 03:09:41;;;;;;;114.43;46.60;;;;;;;-0.96;100.00;98187.72;2031547;29;20263;-71
2021/01/01 03:10:42;;;;;;;110.35;44.00;;;;;;;-0.87;100.00;98204.63;2031553;29;20238;-72
2021/01/01 03:11:43;;;;;;;110.70;46.90;;;;;;;-0.84;100.00;98205.16;2032478;29;20231;-71
2021/01/01 03:12:44;;;;;;;119.53;46.45;;;;;;;-0.79;100.00;98194.72;2031595;29;20679;-71
2021/01/01 03:13:45;;;;;;;117.23;48.10;;;;;;;-0.85;100.00;98188.66;2031617;29;20649;-72
2021/01/01 03:14:46;;;;;;;108.13;46.88;;;;;;;-0.84;100.00;98194.69;2031611;29;20519;-72
2021/01/01 03:15:47;;;;;;;122.57;46.53;;;;;;;-0.77;100.00;98200.53;2032231;29;20256;-72
2021/01/01 03:16:48;;;;;;;111.65;46.60;;;;;;;-0.75;100.00;98203.69;2031548;29;20223;-72
2021/01/01 03:17:52;;;;;;;113.00;46.30;;;;;;;-0.77;100.00;98206.56;2023814;29;20224;-71
2021/01/01 03:18:53;;;;;;;112.90;47.13;;;;;;;-0.73;100.00;98206.84;2031318;29;20227;-71
2021/01/01 03:19:54;;;;;;;106.23;45.47;;;;;;;-0.78;100.00;98207.59;2032279;29;20375;-72
2021/01/01 03:20:55;;;;;;;105.18;45.28;;;;;;;-0.84;100.00;98205.16;2032203;29;20246;-71
2021/01/01 03:21:56;;;;;;;111.93;45.10;;;;;;;-0.91;100.00;98205.31;2031345;29;20267;-72
2021/01/01 03:22:57;;;;;;;100.93;43.63;;;;;;;-0.95;100.00;98201.63;2031556;29;20314;-73
2021/01/01 03:23:58;;;;;;;107.03;43.47;;;;;;;-0.91;100.00;98206.13;2031347;29;20234;-72
2021/01/01 03:25:00;;;;;;;114.45;45.13;;;;;;;-0.88;100.00;98204.81;2031683;29;20765;-71
2021/01/01 03:26:00;;;;;;;105.47;45.17;;;;;;;-0.88;100.00;98205.63;2031558;29;20237;-72
2021/01/01 03:27:02;;;;;;;103.90;45.17;;;;;;;-0.95;100.00;98206.84;2031532;29;20240;-73
2021/01/01 03:28:04;;;;;;;110.03;45.13;;;;;;;-1.01;100.00;98200.75;2031633;29;20227;-72
2021/01/01 03:29:04;;;;;;;108.95;45.05;;;;;;;-1.02;100.00;98203.63;2032355;29;20234;-72
2021/01/01 03:30:07;;;;;;;115.13;44.63;;;;;;;-1.06;100.00;98202.50;2032266;29;20231;-71
2021/01/01 03:31:08;;;;;;;103.20;43.33;;;;;;;-1.09;100.00;98203.00;2031856;29;20606;-71
2021/01/01 03:32:10;;;;;;;99.43;43.08;;;;;;;-1.05;100.00;98211.94;2031420;29;20228;-72
2021/01/01 03:33:10;;;;;;;96.35;43.25;;;;;;;-1.04;100.00;98213.50;2031509;29;20251;-73
2021/01/01 03:34:12;;;;;;;106.67;45.03;;;;;;;-1.08;100.00;98215.03;2032406;29;20227;-72
2021/01/01 03:35:12;;;;;;;108.70;45.38;;;;;;;-1.12;100.00;98209.50;2031590;29;20611;-72
2021/01/01 03:36:14;;;;;;;98.07;42.73;;;;;;;-1.21;100.00;98206.50;2031564;29;20314;-71
2021/01/01 03:37:15;;;;;;;101.00;44.28;;;;;;;-1.18;100.00;98198.16;2031578;29;20701;-72
2021/01/01 03:38:16;;;;;;;103.07;43.93;;;;;;;-1.16;100.00;98198.72;2031530;29;20744;-71
2021/01/01 03:39:17;;;;;;;105.60;44.58;;;;;;;-1.08;100.00;98205.38;2031432;29;20231;-72
2021/01/01 03:40:19;;;;;;;117.13;45.92;;;;;;;-1.06;100.00;98218.22;2031686;29;20219;-71
2021/01/01 03:41:19;;;;;;;111.38;46.30;;;;;;;-1.03;100.00;98212.50;2032261;29;20223;-72
2021/01/01 03:42:21;;;;;;;108.57;45.43;;;;;;;-1.04;100.00;98216.94;2032331;29;20310;-71
2021/01/01 03:43:22;;;;;;;111.30;43.72;;;;;;;-1.04;100.00;98210.91;2031118;29;20294;-75
2021/01/01 03:44:23;;;;;;;107.95;42.65;;;;;;;-1.05;100.00;98209.31;2031507;29;20231;-71
2021/01/01 03:45:24;;;;;;;104.95;42.80;;;;;;;-1.07;100.00;98214.00;2032180;29;20238;-72
2021/01/01 03:46:25;;;;;;;103.27;44.10;;;;;;;-1.15;100.00;98221.22;2031264;29;20322;-72
2021/01/01 03:47:26;;;;;;;111.78;43.83;;;;;;;-1.14;100.00;98220.19;2031463;29;20260;-72
2021/01/01 03:48:27;;;;;;;106.70;43.93;;;;;;;-1.19;100.00;98219.34;2032324;29;20243;-71
2021/01/01 03:49:28;;;;;;;110.25;44.90;;;;;;;-1.17;100.00;98215.44;2031525;29;20582;-72
2021/01/01 03:50:29;;;;;;;121.60;45.37;;;;;;;-1.21;100.00;98209.13;2031440;29;20258;-72
2021/01/01 03:51:30;;;;;;;116.28;45.88;;;;;;;-1.24;100.00;98217.44;2031454;29;20701;-72
2021/01/01 03:52:31;;;;;;;107.13;43.50;;;;;;;-1.26;100.00;98213.50;2023435;29;20650;-72
2021/01/01 03:53:32;;;;;;;112.20;43.70;;;;;;;-1.24;100.00;98211.41;2031402;29;20601;-72
2021/01/01 03:54:34;;;;;;;105.80;44.43;;;;;;;-1.11;100.00;98220.78;2032244;29;20266;-72
2021/01/01 03:55:35;;;;;;;97.75;42.20;;;;;;;-1.07;100.00;98219.25;2031413;29;20230;-71
2021/01/01 03:56:36;;;;;;;102.90;41.27;;;;;;;-1.14;100.00;98211.56;2031484;29;20223;-71
2021/01/01 03:57:37;;;;;;;100.13;42.72;;;;;;;-1.19;100.00;98214.91;2031074;29;20227;-73
2021/01/01 03:58:38;;;;;;;104.00;42.13;;;;;;;-1.21;100.00;98224.81;2031439;29;20322;-72
2021/01/01 03:59:38;;;;;;;112.82;42.72;;;;;;;-1.25;100.00;98215.84;2032216;29;20231;-71
2021/01/01 04:00:40;;;;;;;99.77;42.33;;;;;;;-1.25;100.00;98215.06;2032135;29;20258;-71
2021/01/01 04:01:40;;;;;;;99.28;43.28;;;;;;;-1.32;100.00;98211.81;2031967;29;20318;-71
2021/01/01 04:02:42;;;;;;;98.47;41.60;;;;;;;-1.25;100.00;98215.84;2032378;29;20230;-72
2021/01/01 04:03:43;;;;;;;95.07;42.67;;;;;;;-1.28;100.00;98215.56;2032079;29;20250;-72
2021/01/01 04:04:44;;;;;;;97.77;40.97;;;;;;;-1.25;100.00;98200.16;2032111;29;20230;-71
2021/01/01 04:05:44;;;;;;;98.43;43.65;;;;;;;-1.21;100.00;98210.97;2031109;29;20507;-72
2021/01/01 04:06:46;;;;;;;103.87;42.40;;;;;;;-1.23;100.00;98213.78;2031303;29;20326;-72
2021/01/01 04:07:46;;;;;;;109.88;46.65;;;;;;;-1.21;100.00;98214.38;2031273;29;20821;-72
2021/01/01 04:08:47;;;;;;;102.93;43.03;;;;;;;-1.15;100.00;98215.22;2031545;29;20274;-71
2021/01/01 04:09:50;;;;;;;99.18;42.80;;;;;;;-1.28;100.00;98205.88;2031215;29;20590;-72
2021/01/01 04:10:52;;;;;;;100.35;43.15;;;;;;;-1.33;100.00;98197.94;2031190;29;20220;-71
2021/01/01 04:11:53;;;;;;;98.90;41.03;;;;;;;-1.14;100.00;98204.50;2023227;29;20232;-72
2021/01/01 04:12:54;;;;;;;105.87;42.93;;;;;;;-1.21;100.00;98196.03;2023404;29;20734;-72
2021/01/01 04:13:54;;;;;;;103.82;43.42;;;;;;;-1.19;100.00;98193.97;2023527;29;20790;-71
2021/01/01 04:14:56;;;;;;;93.17;42.93;;;;;;;-1.15;100.00;98202.91;2031389;29;20681;-71
2021/01/01 04:15:56;;;;;;;105.13;44.60;;;;;;;-1.04;100.00;98211.72;2031278;29;20239;-72
2021/01/01 04:16:58;;;;;;;106.43;44.40;;;;;;;-1.09;100.00;98208.22;2031425;29;20262;-71
2021/01/01 04:17:58;;;;;;;102.13;41.33;;;;;;;-1.04;100.00;98205.66;2032093;29;20242;-71
2021/01/01 04:18:59;;;;;;;100.67;41.93;;;;;;;-1.22;100.00;98194.44;2032061;29;20231;-71
2021/01/01 04:20:00;;;;;;;100.82;43.17;;;;;;;-1.14;100.00;98207.09;2031987;29;20581;-72
2021/01/01 04:21:01;;;;;;;102.03;44.63;;;;;;;-1.14;100.00;98204.50;2032022;29;20333;-72
2021/01/01 04:22:02;;;;;;;93.45;43.05;;;;;;;-1.18;100.00;98194.75;2031755;29;20231;-72
2021/01/01 04:23:04;;;;;;;109.10;43.43;;;;;;;-1.15;100.00;98209.97;2032077;29;20743;-72
2021/01/01 04:24:05;;;;;;;111.07;43.72;;;;;;;-1.09;100.00;98208.22;2032037;29;20242;-71
2021/01/01 04:25:08;;;;;;;113.53;45.63;;;;;;;-1.06;100.00;98207.72;2032016;29;20236;-72
2021/01/01 04:26:10;;;;;;;102.63;44.65;;;;;;;-1.06;100.00;98211.13;2030840;29;20706;-71
2021/01/01 04:27:11;;;;;;;94.90;39.88;;;;;;;-1.00;100.00;98210.19;2023463;29;20279;-72
2021/01/01 04:28:12;;;;;;;98.32;41.85;;;;;;;-1.02;100.00;98209.66;2023287;29;20232;-74
2021/01/01 04:29:13;;;;;;;110.07;41.97;;;;;;;-1.05;100.00;98214.56;2031311;29;20311;-72
2021/01/01 04:30:15;;;;;;;92.10;39.08;;;;;;;-1.12;100.00;98208.72;2031274;29;20300;-72
2021/01/01 04:31:17;;;;;;;95.22;41.67;;;;;;;-1.17;100.00;98204.19;2032087;29;20232;-73
2021/01/01 04:32:18;;;;;;;106.60;43.10;;;;;;;-1.20;100.00;98200.25;2032121;29;20359;-71
2021/01/01 04:33:19;;;;;;;97.53;40.77;;;;;;;-1.21;100.00;98210.97;2032044;29;20754;-71
2021/01/01 04:34:20;;;;;;;106.32;42.67;;;;;;;-1.25;100.00;98208.00;2032101;29;20234;-73
2021/01/01 04:35:21;;;;;;;111.80;42.57;;;;;;;-1.25;100.00;98205.41;2032102;29;20235;-72
2021/01/01 04:36:22;;;;;;;104.20;42.10;;;;;;;-1.34;100.00;98196.38;2032524;29;20231;-74